sensor_id;sensor_type;location;lat;lon;timestamp;temperature;humidity
17659;DHT22;8948;51.534;8.262;2022-09-03T00:00:19;18.50;42.80
17659;DHT22;8948;51.534;8.262;2022-09-03T00:16:17;18.40;43.10
17659;DHT22;8948;51.534;8.262;2022-09-03T00:21:36;18.40;43.00
17659;DHT22;8948;51.534;8.262;2022-09-03T00:26:39;18.30;43.40
17659;DHT22;8948;51.534;8.262;2022-09-03T00:31:44;18.20;43.40
17659;DHT22;8948;51.534;8.262;2022-09-03T00:36:46;18.10;43.70
17659;DHT22;8948;51.534;8.262;2022-09-03T00:52:59;17.90;44.30
17659;DHT22;8948;51.534;8.262;2022-09-03T01:04:31;17.90;44.40
17659;DHT22;8948;51.534;8.262;2022-09-03T01:09:27;17.90;44.40
17659;DHT22;8948;51.534;8.262;2022-09-03T01:14:52;17.80;44.40
17659;DHT22;8948;51.534;8.262;2022-09-03T01:20:32;17.80;44.50
17659;DHT22;8948;51.534;8.262;2022-09-03T01:25:41;17.80;44.60
17659;DHT22;8948;51.534;8.262;2022-09-03T01:30:47;17.70;44.70
17659;DHT22;8948;51.534;8.262;2022-09-03T01:46:41;17.50;45.20
17659;DHT22;8948;51.534;8.262;2022-09-03T01:51:44;17.40;45.30
17659;DHT22;8948;51.534;8.262;2022-09-03T02:02:22;17.30;45.60
17659;DHT22;8948;51.534;8.262;2022-09-03T02:08:10;17.30;45.80
17659;DHT22;8948;51.534;8.262;2022-09-03T02:12:52;17.20;45.80
17659;DHT22;8948;51.534;8.262;2022-09-03T02:17:58;17.10;45.90
17659;DHT22;8948;51.534;8.262;2022-09-03T02:23:01;17.10;46.00
17659;DHT22;8948;51.534;8.262;2022-09-03T02:28:04;17.00;46.10
17659;DHT22;8948;51.534;8.262;2022-09-03T02:33:05;16.90;46.30
17659;DHT22;8948;51.534;8.262;2022-09-03T02:38:15;16.80;46.50
17659;DHT22;8948;51.534;8.262;2022-09-03T02:48:36;16.80;47.00
17659;DHT22;8948;51.534;8.262;2022-09-03T02:53:37;16.70;47.00
17659;DHT22;8948;51.534;8.262;2022-09-03T02:58:38;16.70;46.90
17659;DHT22;8948;51.534;8.262;2022-09-03T03:03:39;16.70;46.90
17659;DHT22;8948;51.534;8.262;2022-09-03T03:08:39;16.60;47.10
17659;DHT22;8948;51.534;8.262;2022-09-03T03:13:40;16.60;47.20
17659;DHT22;8948;51.534;8.262;2022-09-03T03:18:41;16.60;47.20
17659;DHT22;8948;51.534;8.262;2022-09-03T03:23:42;16.50;47.30
17659;DHT22;8948;51.534;8.262;2022-09-03T03:28:43;16.50;47.50
17659;DHT22;8948;51.534;8.262;2022-09-03T03:33:43;16.40;47.90
17659;DHT22;8948;51.534;8.262;2022-09-03T03:38:44;16.40;47.90
17659;DHT22;8948;51.534;8.262;2022-09-03T03:43:45;16.30;48.20
17659;DHT22;8948;51.534;8.262;2022-09-03T03:48:52;16.30;48.00
17659;DHT22;8948;51.534;8.262;2022-09-03T03:53:54;16.30;48.40
17659;DHT22;8948;51.534;8.262;2022-09-03T03:58:55;16.30;48.20
17659;DHT22;8948;51.534;8.262;2022-09-03T04:03:57;16.20;48.30
17659;DHT22;8948;51.534;8.262;2022-09-03T04:08:59;16.10;48.60
17659;DHT22;8948;51.534;8.262;2022-09-03T04:14:01;16.10;48.60
17659;DHT22;8948;51.534;8.262;2022-09-03T04:19:02;16.10;48.80
17659;DHT22;8948;51.534;8.262;2022-09-03T04:24:03;16.10;48.70
17659;DHT22;8948;51.534;8.262;2022-09-03T04:29:06;16.00;48.90
17659;DHT22;8948;51.534;8.262;2022-09-03T04:34:07;16.00;49.00
17659;DHT22;8948;51.534;8.262;2022-09-03T04:39:08;16.00;49.20
17659;DHT22;8948;51.534;8.262;2022-09-03T04:44:09;16.00;49.10
17659;DHT22;8948;51.534;8.262;2022-09-03T04:49:09;15.90;49.20
17659;DHT22;8948;51.534;8.262;2022-09-03T04:54:10;15.90;49.40
17659;DHT22;8948;51.534;8.262;2022-09-03T04:59:11;15.90;49.30
17659;DHT22;8948;51.534;8.262;2022-09-03T05:04:12;15.90;49.40
17659;DHT22;8948;51.534;8.262;2022-09-03T05:09:13;15.90;49.40
17659;DHT22;8948;51.534;8.262;2022-09-03T05:14:13;15.90;49.40
17659;DHT22;8948;51.534;8.262;2022-09-03T05:19:14;15.90;49.40
17659;DHT22;8948;51.534;8.262;2022-09-03T05:24:15;16.00;49.50
17659;DHT22;8948;51.534;8.262;2022-09-03T05:29:17;16.00;49.40
17659;DHT22;8948;51.534;8.262;2022-09-03T05:34:19;16.10;49.50
17659;DHT22;8948;51.534;8.262;2022-09-03T05:39:19;16.10;49.60
17659;DHT22;8948;51.534;8.262;2022-09-03T05:44:20;16.20;49.40
17659;DHT22;8948;51.534;8.262;2022-09-03T05:49:22;16.30;49.30
17659;DHT22;8948;51.534;8.262;2022-09-03T05:54:23;16.40;49.20
17659;DHT22;8948;51.534;8.262;2022-09-03T05:59:23;16.50;49.20
17659;DHT22;8948;51.534;8.262;2022-09-03T06:04:24;16.70;48.90
17659;DHT22;8948;51.534;8.262;2022-09-03T06:09:25;16.90;48.80
17659;DHT22;8948;51.534;8.262;2022-09-03T06:14:25;17.00;48.60
17659;DHT22;8948;51.534;8.262;2022-09-03T06:19:26;17.20;48.50
17659;DHT22;8948;51.534;8.262;2022-09-03T06:24:27;17.40;48.00
17659;DHT22;8948;51.534;8.262;2022-09-03T06:29:29;17.60;47.90
17659;DHT22;8948;51.534;8.262;2022-09-03T06:34:29;17.70;47.80
17659;DHT22;8948;51.534;8.262;2022-09-03T06:39:30;18.00;47.40
17659;DHT22;8948;51.534;8.262;2022-09-03T06:44:30;18.20;47.10
17659;DHT22;8948;51.534;8.262;2022-09-03T06:49:31;18.30;46.60
17659;DHT22;8948;51.534;8.262;2022-09-03T06:54:31;18.50;46.60
17659;DHT22;8948;51.534;8.262;2022-09-03T06:59:32;18.70;46.20
17659;DHT22;8948;51.534;8.262;2022-09-03T07:04:32;18.90;46.10
17659;DHT22;8948;51.534;8.262;2022-09-03T07:09:33;19.10;45.50
17659;DHT22;8948;51.534;8.262;2022-09-03T07:14:37;19.30;45.10
17659;DHT22;8948;51.534;8.262;2022-09-03T07:19:38;19.50;45.20
17659;DHT22;8948;51.534;8.262;2022-09-03T07:24:38;19.70;44.80
17659;DHT22;8948;51.534;8.262;2022-09-03T07:29:39;20.00;44.80
17659;DHT22;8948;51.534;8.262;2022-09-03T07:34:39;20.30;44.10
17659;DHT22;8948;51.534;8.262;2022-09-03T07:39:40;20.50;44.00
17659;DHT22;8948;51.534;8.262;2022-09-03T07:44:41;20.80;43.00
17659;DHT22;8948;51.534;8.262;2022-09-03T07:49:41;21.00;42.70
17659;DHT22;8948;51.534;8.262;2022-09-03T07:54:42;21.40;42.30
17659;DHT22;8948;51.534;8.262;2022-09-03T07:59:44;21.60;41.70
17659;DHT22;8948;51.534;8.262;2022-09-03T08:04:44;21.80;41.80
17659;DHT22;8948;51.534;8.262;2022-09-03T08:09:45;22.00;40.30
17659;DHT22;8948;51.534;8.262;2022-09-03T08:14:45;22.10;40.50
17659;DHT22;8948;51.534;8.262;2022-09-03T08:19:46;21.80;40.80
17659;DHT22;8948;51.534;8.262;2022-09-03T08:24:47;21.70;41.10
17659;DHT22;8948;51.534;8.262;2022-09-03T08:29:47;21.70;41.10
17659;DHT22;8948;51.534;8.262;2022-09-03T08:34:48;21.80;41.00
17659;DHT22;8948;51.534;8.262;2022-09-03T08:39:51;21.90;40.60
17659;DHT22;8948;51.534;8.262;2022-09-03T08:44:55;21.90;40.30
17659;DHT22;8948;51.534;8.262;2022-09-03T08:50:03;22.10;40.60
17659;DHT22;8948;51.534;8.262;2022-09-03T09:17:07;23.10;39.20
17659;DHT22;8948;51.534;8.262;2022-09-03T09:22:32;23.90;38.30
17659;DHT22;8948;51.534;8.262;2022-09-03T09:27:34;24.10;38.00
17659;DHT22;8948;51.534;8.262;2022-09-03T09:32:35;24.00;38.60
17659;DHT22;8948;51.534;8.262;2022-09-03T09:37:57;24.00;38.10
17659;DHT22;8948;51.534;8.262;2022-09-03T09:43:18;23.90;38.10
17659;DHT22;8948;51.534;8.262;2022-09-03T09:48:30;23.90;38.10
17659;DHT22;8948;51.534;8.262;2022-09-03T09:53:32;23.60;38.60
17659;DHT22;8948;51.534;8.262;2022-09-03T09:58:35;23.50;39.00
17659;DHT22;8948;51.534;8.262;2022-09-03T10:03:35;23.40;39.00
17659;DHT22;8948;51.534;8.262;2022-09-03T10:08:39;23.50;39.20
17659;DHT22;8948;51.534;8.262;2022-09-03T10:13:44;23.70;38.90
17659;DHT22;8948;51.534;8.262;2022-09-03T10:29:21;24.60;38.30
17659;DHT22;8948;51.534;8.262;2022-09-03T10:50:20;25.60;35.60
17659;DHT22;8948;51.534;8.262;2022-09-03T10:56:04;25.60;35.70
17659;DHT22;8948;51.534;8.262;2022-09-03T11:01:27;25.80;35.30
17659;DHT22;8948;51.534;8.262;2022-09-03T11:11:49;25.70;35.50
17659;DHT22;8948;51.534;8.262;2022-09-03T11:17:00;25.80;36.00
17659;DHT22;8948;51.534;8.262;2022-09-03T11:22:04;26.30;35.40
17659;DHT22;8948;51.534;8.262;2022-09-03T11:48:45;26.40;34.80
17659;DHT22;8948;51.534;8.262;2022-09-03T11:53:55;27.00;35.10
17659;DHT22;8948;51.534;8.262;2022-09-03T11:59:18;27.60;34.00
17659;DHT22;8948;51.534;8.262;2022-09-03T12:04:45;27.00;34.90
17659;DHT22;8948;51.534;8.262;2022-09-03T12:25:56;25.80;36.70
17659;DHT22;8948;51.534;8.262;2022-09-03T12:31:08;25.80;36.70
17659;DHT22;8948;51.534;8.262;2022-09-03T12:41:29;25.50;36.90
17659;DHT22;8948;51.534;8.262;2022-09-03T12:46:31;25.60;37.00
17659;DHT22;8948;51.534;8.262;2022-09-03T12:51:42;25.70;36.60
17659;DHT22;8948;51.534;8.262;2022-09-03T12:56:51;25.70;36.90
17659;DHT22;8948;51.534;8.262;2022-09-03T13:02:01;25.80;36.70
17659;DHT22;8948;51.534;8.262;2022-09-03T13:07:43;26.00;37.40
17659;DHT22;8948;51.534;8.262;2022-09-03T13:12:46;26.20;36.90
17659;DHT22;8948;51.534;8.262;2022-09-03T13:18:22;26.80;36.30
17659;DHT22;8948;51.534;8.262;2022-09-03T13:29:32;27.90;35.10
17659;DHT22;8948;51.534;8.262;2022-09-03T13:34:27;28.10;33.90
17659;DHT22;8948;51.534;8.262;2022-09-03T13:39:45;27.80;34.00
17659;DHT22;8948;51.534;8.262;2022-09-03T13:44:57;28.10;34.30
17659;DHT22;8948;51.534;8.262;2022-09-03T13:50:10;28.70;33.30
17659;DHT22;8948;51.534;8.262;2022-09-03T13:55:50;28.80;33.40
17659;DHT22;8948;51.534;8.262;2022-09-03T14:07:14;29.50;31.90
17659;DHT22;8948;51.534;8.262;2022-09-03T14:12:20;29.60;32.20
17659;DHT22;8948;51.534;8.262;2022-09-03T14:27:48;30.30;31.50
17659;DHT22;8948;51.534;8.262;2022-09-03T14:33:24;30.40;31.50
17659;DHT22;8948;51.534;8.262;2022-09-03T14:39:31;30.10;31.10
17659;DHT22;8948;51.534;8.262;2022-09-03T14:54:45;28.80;33.00
17659;DHT22;8948;51.534;8.262;2022-09-03T14:59:58;28.30;33.40
17659;DHT22;8948;51.534;8.262;2022-09-03T15:10:40;27.40;34.00
17659;DHT22;8948;51.534;8.262;2022-09-03T15:21:18;26.80;34.80
17659;DHT22;8948;51.534;8.262;2022-09-03T15:31:46;26.80;34.50
17659;DHT22;8948;51.534;8.262;2022-09-03T15:36:51;26.50;34.90
17659;DHT22;8948;51.534;8.262;2022-09-03T15:42:06;26.10;35.00
17659;DHT22;8948;51.534;8.262;2022-09-03T15:47:12;26.00;35.00
17659;DHT22;8948;51.534;8.262;2022-09-03T15:57:34;25.40;35.70
17659;DHT22;8948;51.534;8.262;2022-09-03T16:19:13;25.40;36.50
17659;DHT22;8948;51.534;8.262;2022-09-03T16:24:23;25.20;36.30
17659;DHT22;8948;51.534;8.262;2022-09-03T16:29:27;25.10;36.80
17659;DHT22;8948;51.534;8.262;2022-09-03T16:56:30;25.00;37.40
17659;DHT22;8948;51.534;8.262;2022-09-03T17:33:55;24.10;40.00
17659;DHT22;8948;51.534;8.262;2022-09-03T17:44:18;23.80;40.70
17659;DHT22;8948;51.534;8.262;2022-09-03T17:49:30;23.80;40.70
17659;DHT22;8948;51.534;8.262;2022-09-03T17:54:48;23.70;41.00
17659;DHT22;8948;51.534;8.262;2022-09-03T18:00:04;23.80;41.20
17659;DHT22;8948;51.534;8.262;2022-09-03T18:05:21;23.70;41.10
17659;DHT22;8948;51.534;8.262;2022-09-03T18:10:26;23.60;41.20
17659;DHT22;8948;51.534;8.262;2022-09-03T18:15:33;23.60;41.20
17659;DHT22;8948;51.534;8.262;2022-09-03T18:20:49;23.50;41.30
17659;DHT22;8948;51.534;8.262;2022-09-03T18:26:13;23.50;41.60
17659;DHT22;8948;51.534;8.262;2022-09-03T18:31:33;23.30;41.90
17659;DHT22;8948;51.534;8.262;2022-09-03T18:36:56;23.10;42.00
17659;DHT22;8948;51.534;8.262;2022-09-03T18:53:17;23.10;42.20
17659;DHT22;8948;51.534;8.262;2022-09-03T19:05:19;22.80;42.80
17659;DHT22;8948;51.534;8.262;2022-09-03T19:10:45;22.60;43.10
17659;DHT22;8948;51.534;8.262;2022-09-03T19:16:53;22.60;42.90
17659;DHT22;8948;51.534;8.262;2022-09-03T19:22:37;22.50;43.50
17659;DHT22;8948;51.534;8.262;2022-09-03T19:33:30;22.10;44.00
17659;DHT22;8948;51.534;8.262;2022-09-03T19:45:10;21.90;44.50
17659;DHT22;8948;51.534;8.262;2022-09-03T19:50:36;21.80;44.80
17659;DHT22;8948;51.534;8.262;2022-09-03T19:56:04;21.70;44.80
17659;DHT22;8948;51.534;8.262;2022-09-03T20:01:32;21.60;45.20
17659;DHT22;8948;51.534;8.262;2022-09-03T20:06:51;21.50;45.50
17659;DHT22;8948;51.534;8.262;2022-09-03T20:12:12;21.30;45.40
17659;DHT22;8948;51.534;8.262;2022-09-03T20:17:27;21.30;45.40
17659;DHT22;8948;51.534;8.262;2022-09-03T20:22:30;21.30;45.70
17659;DHT22;8948;51.534;8.262;2022-09-03T20:28:01;21.20;45.70
17659;DHT22;8948;51.534;8.262;2022-09-03T20:49:51;20.80;46.60
17659;DHT22;8948;51.534;8.262;2022-09-03T20:55:03;20.70;47.10
17659;DHT22;8948;51.534;8.262;2022-09-03T21:00:15;20.60;47.30
17659;DHT22;8948;51.534;8.262;2022-09-03T21:06:03;20.40;47.50
17659;DHT22;8948;51.534;8.262;2022-09-03T21:11:02;20.40;47.70
17659;DHT22;8948;51.534;8.262;2022-09-03T21:16:18;20.40;47.80
17659;DHT22;8948;51.534;8.262;2022-09-03T21:26:56;20.30;47.90
17659;DHT22;8948;51.534;8.262;2022-09-03T21:32:03;20.30;47.90
17659;DHT22;8948;51.534;8.262;2022-09-03T21:37:09;20.30;48.10
17659;DHT22;8948;51.534;8.262;2022-09-03T21:42:20;20.20;48.10
17659;DHT22;8948;51.534;8.262;2022-09-03T21:47:26;20.20;48.10
17659;DHT22;8948;51.534;8.262;2022-09-03T21:52:57;20.20;48.30
17659;DHT22;8948;51.534;8.262;2022-09-03T22:02:59;20.10;48.40
17659;DHT22;8948;51.534;8.262;2022-09-03T22:08:34;20.20;48.30
17659;DHT22;8948;51.534;8.262;2022-09-03T22:18:42;20.10;48.50
17659;DHT22;8948;51.534;8.262;2022-09-03T22:24:23;20.00;48.70
17659;DHT22;8948;51.534;8.262;2022-09-03T22:29:54;20.10;49.10
17659;DHT22;8948;51.534;8.262;2022-09-03T22:50:57;20.00;49.30
17659;DHT22;8948;51.534;8.262;2022-09-03T22:56:11;19.90;48.90
17659;DHT22;8948;51.534;8.262;2022-09-03T23:01:21;19.90;49.20
17659;DHT22;8948;51.534;8.262;2022-09-03T23:06:30;19.90;49.10
17659;DHT22;8948;51.534;8.262;2022-09-03T23:11:44;19.90;49.10
17659;DHT22;8948;51.534;8.262;2022-09-03T23:16:47;19.80;49.20
17659;DHT22;8948;51.534;8.262;2022-09-03T23:21:58;19.70;49.30
17659;DHT22;8948;51.534;8.262;2022-09-03T23:27:05;19.70;49.70
17659;DHT22;8948;51.534;8.262;2022-09-03T23:32:07;19.60;49.80
17659;DHT22;8948;51.534;8.262;2022-09-03T23:37:49;19.50;49.80
